createdAt,value
2018-10-09T00:02:14.226Z,11.83
2018-10-09T00:04:43.600Z,12.17
2018-10-09T00:07:12.543Z,12.60
2018-10-09T00:09:41.441Z,12.90
2018-10-09T00:12:10.879Z,13.50
2018-10-09T00:14:39.879Z,12.13
2018-10-09T00:17:08.932Z,11.93
2018-10-09T00:19:38.779Z,11.67
2018-10-09T00:22:07.719Z,12.17
2018-10-09T00:24:36.723Z,11.20
2018-10-09T00:27:06.119Z,12.43
2018-10-09T00:29:35.172Z,11.37
2018-10-09T00:32:04.126Z,12.30
2018-10-09T00:34:33.541Z,12.37
2018-10-09T00:37:02.490Z,12.97
2018-10-09T00:39:31.558Z,12.67
2018-10-09T00:42:00.681Z,12.60
2018-10-09T00:44:29.908Z,12.77
2018-10-09T00:46:58.832Z,13.13
2018-10-09T00:49:27.879Z,15.80
2018-10-09T00:51:56.768Z,14.97
2018-10-09T00:54:25.684Z,16.13
2018-10-09T00:56:55.219Z,16.70
2018-10-09T00:59:24.484Z,15.97
2018-10-09T01:01:53.546Z,17.00
2018-10-09T01:04:22.665Z,16.63
2018-10-09T01:06:51.824Z,16.40
2018-10-09T01:09:21.115Z,18.13
2018-10-09T01:11:50.539Z,17.30
2018-10-09T01:14:19.489Z,19.30
2018-10-09T01:16:48.619Z,19.20
2018-10-09T01:19:17.636Z,20.60
2018-10-09T01:21:46.538Z,20.13
2018-10-09T01:24:15.365Z,19.17
2018-10-09T01:26:44.872Z,20.47
2018-10-09T01:29:14.491Z,20.77
2018-10-09T01:31:43.694Z,20.27
2018-10-09T01:34:12.980Z,20.33
2018-10-09T01:36:41.988Z,20.87
2018-10-09T01:39:11.559Z,21.67
2018-10-09T01:41:40.625Z,20.23
2018-10-09T01:44:09.664Z,21.47
2018-10-09T01:46:38.758Z,23.03
2018-10-09T01:49:08.147Z,22.37
2018-10-09T01:51:37.242Z,21.57
2018-10-09T01:54:06.152Z,22.40
2018-10-09T01:56:35.435Z,24.07
2018-10-09T01:59:04.423Z,23.37
2018-10-09T02:01:33.606Z,23.03
2018-10-09T02:04:03.324Z,22.10
2018-10-09T02:06:32.164Z,24.33
2018-10-09T02:09:01.159Z,24.40
2018-10-09T02:11:30.592Z,23.73
2018-10-09T02:13:59.495Z,26.73
2018-10-09T02:16:28.511Z,25.07
2018-10-09T02:18:57.680Z,24.80
2018-10-09T02:21:26.705Z,24.90
2018-10-09T02:23:55.685Z,24.50
2018-10-09T02:26:25.364Z,22.80
2018-10-09T02:28:54.394Z,22.87
2018-10-09T02:38:08.474Z,21.53
2018-10-09T02:40:37.361Z,22.63
2018-10-09T02:43:06.411Z,24.90
2018-10-09T02:45:35.388Z,24.70
2018-10-09T02:48:04.560Z,23.93
2018-10-09T02:50:33.516Z,24.27
2018-10-09T02:53:02.467Z,22.17
2018-10-09T02:55:31.599Z,23.73
2018-10-09T02:58:00.836Z,23.90
2018-10-09T03:00:29.992Z,23.40
2018-10-09T03:02:58.956Z,23.53
2018-10-09T03:05:28.243Z,20.70
2018-10-09T03:07:57.184Z,20.60
2018-10-09T03:10:26.275Z,21.43
2018-10-09T03:12:55.179Z,20.57
2018-10-09T03:15:24.249Z,20.60
2018-10-09T03:17:53.085Z,21.63
2018-10-09T03:20:22.387Z,20.23
2018-10-09T03:22:51.366Z,22.17
2018-10-09T03:25:20.608Z,19.87
2018-10-09T03:27:49.719Z,20.60
2018-10-09T03:30:18.526Z,20.37
2018-10-09T03:32:47.576Z,20.50
2018-10-09T03:35:16.768Z,21.37
2018-10-09T03:37:45.841Z,22.50
2018-10-09T03:40:14.852Z,21.63
2018-10-09T03:42:44.013Z,20.37
2018-10-09T03:45:13.162Z,20.30
2018-10-09T03:47:42.218Z,23.03
2018-10-09T03:50:11.230Z,19.50
2018-10-09T03:52:40.364Z,18.70
2018-10-09T03:55:09.352Z,18.73
2018-10-09T03:57:38.626Z,19.53
2018-10-09T04:00:07.956Z,18.90
2018-10-09T04:02:37.114Z,18.77
2018-10-09T04:05:06.289Z,18.97
2018-10-09T04:07:35.308Z,20.87
2018-10-09T04:10:04.411Z,20.43
2018-10-09T04:12:34.812Z,21.17
2018-10-09T04:15:03.869Z,21.03
2018-10-09T04:17:32.886Z,23.10
2018-10-09T04:20:02.020Z,20.17
2018-10-09T04:22:30.965Z,19.90
2018-10-09T04:24:59.941Z,21.17
2018-10-09T04:27:29.065Z,20.13
2018-10-09T04:29:58.123Z,19.73
2018-10-09T04:32:27.220Z,20.57
2018-10-09T04:34:56.286Z,19.47
2018-10-09T04:37:25.336Z,18.43
2018-10-09T04:39:54.488Z,19.23
2018-10-09T04:42:23.521Z,18.97
2018-10-09T04:44:52.794Z,19.17
2018-10-09T04:47:21.848Z,19.43
2018-10-09T04:49:51.265Z,19.67
2018-10-09T04:52:20.379Z,17.83
2018-10-09T04:54:49.453Z,17.33
2018-10-09T04:57:18.586Z,17.07
2018-10-09T04:59:47.589Z,19.07
2018-10-09T05:02:16.798Z,16.27
2018-10-09T05:04:45.876Z,17.90
2018-10-09T05:07:14.835Z,18.37
2018-10-09T05:09:43.789Z,17.13
2018-10-09T05:12:13.193Z,15.67
2018-10-09T05:14:42.071Z,17.33
2018-10-09T05:17:11.239Z,16.97
2018-10-09T05:19:40.646Z,16.53
2018-10-09T05:22:09.622Z,14.13
2018-10-09T05:24:38.567Z,15.33
2018-10-09T05:27:07.722Z,16.10
2018-10-09T05:29:36.550Z,16.07
2018-10-09T05:32:05.468Z,15.97
2018-10-09T05:34:34.771Z,16.00
2018-10-09T05:37:03.687Z,16.63
2018-10-09T05:39:32.574Z,15.80
2018-10-09T05:42:01.841Z,15.17
2018-10-09T05:44:30.860Z,13.70
2018-10-09T05:46:59.652Z,14.57
2018-10-09T05:49:28.964Z,14.47
2018-10-09T05:51:58.037Z,14.53
2018-10-09T05:54:26.886Z,13.43
2018-10-09T05:56:56.004Z,14.20
2018-10-09T05:59:24.891Z,12.77
2018-10-09T06:01:53.806Z,13.73
2018-10-09T06:04:22.899Z,13.20
2018-10-09T06:06:51.863Z,14.13
2018-10-09T06:09:20.726Z,13.27
2018-10-09T06:11:49.723Z,13.27
2018-10-09T06:14:18.698Z,13.37
2018-10-09T06:16:47.567Z,12.87
2018-10-09T06:19:16.579Z,14.17
2018-10-09T06:21:45.572Z,13.03
2018-10-09T06:24:14.530Z,12.57
2018-10-09T06:26:43.889Z,12.87
2018-10-09T06:29:12.758Z,12.20
2018-10-09T06:31:41.766Z,12.50
2018-10-09T06:34:10.833Z,12.40
2018-10-09T06:36:39.840Z,12.40
2018-10-09T06:39:10.725Z,12.03
2018-10-09T06:41:40.089Z,11.47
2018-10-09T06:44:08.905Z,10.47
2018-10-09T06:46:38.297Z,10.23
2018-10-09T06:49:07.310Z,10.47
2018-10-09T06:51:36.282Z,9.60
2018-10-09T06:54:05.430Z,10.37
2018-10-09T06:56:34.233Z,9.57
2018-10-09T06:59:03.193Z,10.00
2018-10-09T07:01:32.157Z,9.43
2018-10-09T07:04:01.176Z,9.60
2018-10-09T07:07:59.568Z,9.33
2018-10-09T07:11:57.717Z,10.23
2018-10-09T07:14:27.388Z,8.63
2018-10-09T07:16:56.295Z,9.27
2018-10-09T07:19:25.238Z,9.07
2018-10-09T07:21:54.330Z,8.67
2018-10-09T07:24:23.274Z,8.23
2018-10-09T07:26:52.204Z,7.73
2018-10-09T07:29:21.301Z,7.20
2018-10-09T07:31:50.356Z,7.73
2018-10-09T07:34:19.387Z,7.80
2018-10-09T07:36:48.392Z,7.20
2018-10-09T07:39:17.326Z,7.43
2018-10-09T07:41:46.190Z,7.27
2018-10-09T07:44:15.344Z,7.03
2018-10-09T07:46:44.336Z,7.40
2018-10-09T07:49:13.223Z,7.50
2018-10-09T07:51:42.262Z,7.50
2018-10-09T07:54:11.188Z,7.83
2018-10-09T07:56:40.075Z,8.03
2018-10-09T08:00:38.337Z,6.50
2018-10-09T08:03:07.383Z,6.93
2018-10-09T08:05:36.274Z,6.83
2018-10-09T08:08:05.517Z,6.97
2018-10-09T08:10:34.649Z,6.90
2018-10-09T08:13:03.606Z,8.40
2018-10-09T08:15:32.672Z,7.73
2018-10-09T08:18:01.695Z,7.43
2018-10-09T08:20:30.647Z,8.10
2018-10-09T08:22:59.993Z,8.90
2018-10-09T08:25:28.861Z,7.13
2018-10-09T08:27:57.814Z,8.13
2018-10-09T08:30:26.854Z,7.17
2018-10-09T08:32:55.747Z,7.03
2018-10-09T08:35:24.721Z,6.80
2018-10-09T08:37:53.914Z,6.83
2018-10-09T08:40:22.976Z,5.90
2018-10-09T08:42:51.968Z,6.60
2018-10-09T08:45:21.358Z,6.03
2018-10-09T08:47:50.248Z,5.77
2018-10-09T08:50:19.158Z,5.67
2018-10-09T08:53:50.843Z,5.50
2018-10-09T08:56:19.763Z,5.87
2018-10-09T08:58:48.712Z,5.33
2018-10-09T09:01:17.943Z,5.13
2018-10-09T09:03:46.835Z,5.43
2018-10-09T09:06:15.781Z,4.87
2018-10-09T09:08:45.219Z,5.27
2018-10-09T09:11:14.164Z,5.23
2018-10-09T09:13:43.169Z,5.17
2018-10-09T09:16:12.480Z,4.70
2018-10-09T09:18:41.579Z,3.10
2018-10-09T09:21:10.659Z,3.00
2018-10-09T09:23:39.652Z,2.43
2018-10-09T09:26:08.607Z,2.50
2018-10-09T09:28:37.721Z,2.23
2018-10-09T09:31:06.976Z,2.40
2018-10-09T09:33:36.003Z,2.83
2018-10-09T09:36:04.962Z,2.70
2018-10-09T09:38:33.926Z,2.80
2018-10-09T09:41:02.987Z,2.67
2018-10-09T09:43:31.877Z,3.20
2018-10-09T09:46:01.151Z,2.97
2018-10-09T09:48:29.892Z,2.80
2018-10-09T09:50:58.963Z,3.10
2018-10-09T09:53:28.065Z,2.83
2018-10-09T09:55:56.913Z,3.03
2018-10-09T09:58:26.040Z,2.17
2018-10-09T10:00:59.052Z,2.27
2018-10-09T10:03:28.311Z,2.50
2018-10-09T10:05:57.229Z,2.73
2018-10-09T10:08:26.132Z,3.43
2018-10-09T10:10:55.040Z,2.70
2018-10-09T10:13:23.950Z,2.33
2018-10-09T10:15:53.086Z,2.30
2018-10-09T10:25:06.681Z,2.30
2018-10-09T10:27:35.761Z,2.43
2018-10-09T10:30:04.825Z,2.53
2018-10-09T10:32:34.020Z,3.07
2018-10-09T10:35:02.864Z,2.60
2018-10-09T10:37:31.776Z,2.93
2018-10-09T10:40:01.498Z,2.30
2018-10-09T10:42:30.453Z,2.63
2018-10-09T10:44:59.297Z,2.93
2018-10-09T10:47:28.368Z,2.83
2018-10-09T10:49:57.145Z,2.87
2018-10-09T10:52:26.070Z,3.20
2018-10-09T10:54:55.100Z,3.10
2018-10-09T10:57:24.140Z,2.73
2018-10-09T10:59:53.006Z,2.53
2018-10-09T11:02:22.081Z,2.50
2018-10-09T11:04:50.926Z,2.37
2018-10-09T11:07:20.868Z,2.67
2018-10-09T11:09:50.245Z,2.67
2018-10-09T11:12:19.084Z,2.53
2018-10-09T11:14:48.006Z,3.70
2018-10-09T11:17:17.124Z,2.50
2018-10-09T11:19:46.088Z,2.53
2018-10-09T11:22:15.063Z,2.63
2018-10-09T11:24:44.135Z,2.70
2018-10-09T11:27:13.090Z,2.93
2018-10-09T11:29:42.020Z,2.70
2018-10-09T11:32:10.936Z,2.90
2018-10-09T11:34:39.957Z,2.93
2018-10-09T11:37:09.084Z,2.60
2018-10-09T11:39:38.324Z,3.10
2018-10-09T11:42:07.388Z,2.53
2018-10-09T11:44:36.364Z,2.80
2018-10-09T11:48:35.936Z,2.93
2018-10-09T11:51:04.929Z,2.90
2018-10-09T11:53:33.952Z,3.10
2018-10-09T11:56:03.311Z,2.63
2018-10-09T11:58:32.292Z,2.50
2018-10-09T12:01:04.280Z,2.83
2018-10-09T12:03:33.730Z,2.47
2018-10-09T12:06:02.636Z,2.80
2018-10-09T12:08:31.904Z,2.70
2018-10-09T12:11:01.170Z,2.80
2018-10-09T12:13:30.233Z,2.27
2018-10-09T12:16:01.997Z,2.60
2018-10-09T12:18:31.151Z,2.70
2018-10-09T12:21:00.247Z,3.00
2018-10-09T12:23:29.682Z,3.17
2018-10-09T12:25:58.677Z,2.53
2018-10-09T12:29:57.915Z,2.87
2018-10-09T12:39:14.169Z,2.70
2018-10-09T12:41:43.277Z,3.23
2018-10-09T12:44:12.384Z,3.20
2018-10-09T12:46:41.601Z,3.57
2018-10-09T12:49:10.922Z,3.20
2018-10-09T12:51:40.045Z,3.30
2018-10-09T12:54:13.676Z,3.00
2018-10-09T12:56:42.897Z,3.27
2018-10-09T12:59:14.228Z,3.10
2018-10-09T13:01:43.476Z,2.60
2018-10-09T13:04:12.611Z,3.17
2018-10-09T13:06:41.722Z,3.03
2018-10-09T13:09:13.396Z,2.60
2018-10-09T13:11:42.612Z,2.80
2018-10-09T13:14:13.079Z,2.83
2018-10-09T13:16:42.376Z,3.00
2018-10-09T13:19:12.745Z,3.47
2018-10-09T13:21:42.970Z,2.70
2018-10-09T13:24:12.204Z,2.83
2018-10-09T13:26:41.254Z,2.67
2018-10-09T13:29:10.671Z,2.70
2018-10-09T13:31:39.729Z,3.10
2018-10-09T13:34:08.710Z,3.13
2018-10-09T13:36:37.641Z,3.07
2018-10-09T13:39:07.728Z,2.37
2018-10-09T13:41:36.674Z,2.70
2018-10-09T13:44:06.102Z,2.50
2018-10-09T13:46:34.981Z,2.50
2018-10-09T13:49:03.867Z,2.80
2018-10-09T13:51:32.903Z,3.50
2018-10-09T13:54:01.945Z,2.67
2018-10-09T13:56:30.907Z,2.70
2018-10-09T13:59:00.129Z,3.00
2018-10-09T14:01:29.009Z,2.80
2018-10-09T14:03:57.992Z,2.73
2018-10-09T14:06:27.222Z,3.17
2018-10-09T14:08:56.242Z,3.13
2018-10-09T14:11:25.141Z,3.27
2018-10-09T14:13:54.144Z,4.40
2018-10-09T14:16:23.177Z,3.80
2018-10-09T14:18:52.198Z,3.70
2018-10-09T14:21:21.289Z,3.83
2018-10-09T14:23:50.262Z,5.27
2018-10-09T14:26:19.174Z,4.90
2018-10-09T14:28:48.205Z,4.43
2018-10-09T14:31:16.058Z,4.00
2018-10-09T14:33:45.110Z,4.90
2018-10-09T14:36:14.065Z,4.30
2018-10-09T14:38:42.874Z,3.80
2018-10-09T14:41:11.906Z,3.57
2018-10-09T14:43:40.992Z,4.63
2018-10-09T14:46:12.432Z,3.83
2018-10-09T14:48:41.834Z,3.70
2018-10-09T14:51:11.151Z,5.43
2018-10-09T14:53:40.204Z,3.23
2018-10-09T14:56:09.383Z,3.73
2018-10-09T14:58:38.341Z,4.53
2018-10-09T15:01:07.816Z,3.07
2018-10-09T15:03:37.180Z,3.03
2018-10-09T15:06:06.199Z,3.40
2018-10-09T15:10:04.669Z,3.20
2018-10-09T15:12:33.673Z,3.93
2018-10-09T15:15:02.740Z,4.17
2018-10-09T15:17:31.803Z,4.40
2018-10-09T15:20:00.589Z,3.80
2018-10-09T15:22:29.445Z,4.77
2018-10-09T15:24:58.463Z,3.93
2018-10-09T15:27:27.371Z,3.97
2018-10-09T15:29:56.309Z,4.67
2018-10-09T15:32:25.312Z,5.00
2018-10-09T15:34:54.196Z,4.40
2018-10-09T15:37:23.200Z,4.20
2018-10-09T15:39:52.555Z,4.83
2018-10-09T15:42:21.490Z,4.23
2018-10-09T15:44:50.787Z,4.90
2018-10-09T15:47:19.931Z,4.70
2018-10-09T15:49:49.013Z,4.67
2018-10-09T15:52:18.129Z,6.30
2018-10-09T15:54:47.200Z,5.80
2018-10-09T15:57:16.829Z,4.50
2018-10-09T15:59:47.461Z,4.77
2018-10-09T16:02:16.624Z,4.60
2018-10-09T16:04:45.580Z,6.37
2018-10-09T16:07:14.941Z,7.03
2018-10-09T16:09:43.975Z,6.43
2018-10-09T16:12:13.157Z,5.13
2018-10-09T16:14:42.152Z,5.50
2018-10-09T16:17:11.374Z,5.27
2018-10-09T16:19:40.493Z,6.23
2018-10-09T16:22:09.697Z,6.30
2018-10-09T16:24:38.825Z,7.20
2018-10-09T16:27:07.867Z,6.53
2018-10-09T16:29:37.110Z,7.07
2018-10-09T16:32:06.284Z,6.53
2018-10-09T16:34:35.345Z,7.80
2018-10-09T16:37:04.741Z,5.83
2018-10-09T16:39:33.662Z,6.23
2018-10-09T16:42:02.776Z,8.17
2018-10-09T16:44:31.804Z,8.47
2018-10-09T16:47:04.544Z,9.57
2018-10-09T16:49:34.773Z,9.53
2018-10-09T16:52:04.072Z,9.87
2018-10-09T16:54:33.120Z,7.70
2018-10-09T16:57:02.149Z,8.33
2018-10-09T16:59:31.075Z,7.50
2018-10-09T17:02:00.068Z,7.80
2018-10-09T17:04:29.262Z,9.50
2018-10-09T17:06:58.172Z,8.73
2018-10-09T17:09:27.082Z,8.40
2018-10-09T17:11:56.748Z,10.93
2018-10-09T17:14:25.673Z,9.07
2018-10-09T17:16:54.630Z,10.50
2018-10-09T17:19:23.585Z,10.70
2018-10-09T17:21:52.548Z,9.30
2018-10-09T17:24:21.683Z,11.60
2018-10-09T17:26:51.172Z,12.70
2018-10-09T17:29:20.012Z,13.27
2018-10-09T17:31:49.137Z,10.93
2018-10-09T17:34:18.526Z,11.17
2018-10-09T17:36:47.648Z,10.83
2018-10-09T17:39:16.718Z,15.77
2018-10-09T17:41:45.888Z,27.67
2018-10-09T17:44:14.798Z,19.00
2018-10-09T17:46:43.974Z,13.10
2018-10-09T17:49:14.215Z,9.70
2018-10-09T17:51:43.297Z,12.23
2018-10-09T17:54:12.418Z,12.13
2018-10-09T17:56:44.647Z,12.97
2018-10-09T17:59:16.217Z,14.60
2018-10-09T18:01:45.285Z,12.97
2018-10-09T18:04:14.396Z,13.03
2018-10-09T18:06:43.593Z,9.73
2018-10-09T18:09:13.479Z,10.00
2018-10-09T18:11:42.479Z,9.10
2018-10-09T18:14:12.052Z,10.63
2018-10-09T18:16:41.013Z,15.20
2018-10-09T18:19:10.095Z,14.23
2018-10-09T18:21:39.333Z,11.93
2018-10-09T18:24:08.240Z,12.30
2018-10-09T18:26:37.173Z,18.93
2018-10-09T18:29:06.413Z,14.20
2018-10-09T18:31:35.345Z,10.80
2018-10-09T18:34:04.582Z,11.80
2018-10-09T18:36:34.079Z,12.03
2018-10-09T18:39:03.086Z,12.23
2018-10-09T18:41:32.379Z,12.20
2018-10-09T18:44:01.305Z,11.33
2018-10-09T18:46:30.485Z,11.90
2018-10-09T18:48:59.342Z,11.33
2018-10-09T18:51:28.684Z,11.63
2018-10-09T18:53:57.628Z,10.47
2018-10-09T18:56:26.671Z,12.47
2018-10-09T18:58:55.927Z,12.47
2018-10-09T19:01:24.921Z,11.47
2018-10-09T19:03:53.947Z,11.87
2018-10-09T19:06:23.029Z,12.03
2018-10-09T19:08:52.000Z,10.70
2018-10-09T19:18:09.725Z,12.33
2018-10-09T19:20:38.631Z,12.13
2018-10-09T19:23:07.901Z,13.37
2018-10-09T19:25:37.176Z,14.73
2018-10-09T19:28:06.864Z,11.63
2018-10-09T19:30:35.908Z,12.90
2018-10-09T19:33:05.516Z,13.30
2018-10-09T19:35:34.861Z,11.40
2018-10-09T19:38:03.785Z,9.67
2018-10-09T19:40:33.622Z,9.80
2018-10-09T19:43:02.494Z,9.83
2018-10-09T19:45:31.462Z,10.60
2018-10-09T19:48:00.483Z,10.33
2018-10-09T19:50:29.415Z,9.90
2018-10-09T19:52:58.327Z,9.33
2018-10-09T19:55:27.739Z,9.63
2018-10-09T19:57:56.652Z,10.07
2018-10-09T20:00:25.648Z,9.87
2018-10-09T20:02:54.753Z,13.07
2018-10-09T20:05:23.904Z,11.30
2018-10-09T20:07:53.352Z,9.90
2018-10-09T20:10:22.459Z,10.20
2018-10-09T20:12:51.526Z,9.03
2018-10-09T20:15:20.469Z,8.63
2018-10-09T20:17:49.797Z,9.60
2018-10-09T20:20:18.665Z,9.73
2018-10-09T20:22:47.648Z,8.67
2018-10-09T20:25:17.067Z,9.07
2018-10-09T20:27:46.069Z,8.60
2018-10-09T20:30:15.418Z,9.13
2018-10-09T20:32:45.100Z,9.97
2018-10-09T20:35:14.230Z,10.00
2018-10-09T20:37:43.473Z,9.87
2018-10-09T20:40:12.650Z,10.27
2018-10-09T20:42:41.625Z,9.63
2018-10-09T20:45:10.786Z,9.30
2018-10-09T20:47:44.814Z,9.90
2018-10-09T20:50:14.676Z,10.27
2018-10-09T20:52:44.417Z,10.60
2018-10-09T20:55:13.523Z,10.53
2018-10-09T20:57:42.571Z,10.00
2018-10-09T21:00:11.992Z,10.50
2018-10-09T21:02:40.970Z,10.23
2018-10-09T21:05:10.079Z,10.40
2018-10-09T21:07:39.462Z,11.50
2018-10-09T21:10:08.416Z,13.70
2018-10-09T21:12:37.690Z,12.43
2018-10-09T21:15:06.942Z,11.47
2018-10-09T21:17:35.933Z,13.90
2018-10-09T21:20:04.900Z,13.17
2018-10-09T21:22:34.033Z,12.10
2018-10-09T21:25:02.844Z,12.40
2018-10-09T21:27:31.859Z,11.77
2018-10-09T21:30:01.081Z,10.87
2018-10-09T21:32:29.953Z,11.53
2018-10-09T21:34:58.797Z,11.30
2018-10-09T21:37:27.697Z,10.43
2018-10-09T21:39:56.597Z,9.47
2018-10-09T21:42:25.447Z,9.70
2018-10-09T21:44:54.390Z,11.43
2018-10-09T21:47:23.217Z,13.17
2018-10-09T21:49:52.158Z,13.87
2018-10-09T21:52:21.194Z,15.70
2018-10-09T21:54:50.127Z,16.23
2018-10-09T21:57:19.005Z,17.63
2018-10-09T21:59:47.908Z,18.37
2018-10-09T22:02:16.760Z,17.60
2018-10-09T22:04:45.645Z,18.27
2018-10-09T22:07:18.134Z,17.77
2018-10-09T22:09:47.130Z,17.97
2018-10-09T22:12:16.000Z,16.97
2018-10-09T22:14:44.953Z,18.50
2018-10-09T22:17:13.839Z,19.03
2018-10-09T22:19:42.675Z,20.50
2018-10-09T22:22:11.604Z,21.43
2018-10-09T22:24:40.492Z,20.40
2018-10-09T22:27:09.346Z,20.03
2018-10-09T22:29:38.267Z,20.03
2018-10-09T22:32:07.210Z,18.67
2018-10-09T22:34:36.443Z,17.77
2018-10-09T22:37:05.772Z,18.13
2018-10-09T22:39:34.568Z,16.60
2018-10-09T22:42:03.426Z,15.93
2018-10-09T22:44:32.835Z,14.57
2018-10-09T22:47:01.669Z,14.90
2018-10-09T22:49:30.620Z,16.27
2018-10-09T22:52:00.123Z,15.67
2018-10-09T22:54:29.049Z,14.70
2018-10-09T22:56:58.031Z,13.93
2018-10-09T22:59:27.803Z,14.20
2018-10-09T23:01:56.927Z,14.57
2018-10-09T23:04:25.921Z,16.93
2018-10-09T23:06:55.165Z,15.77
2018-10-09T23:09:24.386Z,15.03
2018-10-09T23:11:53.465Z,15.70
2018-10-09T23:14:22.483Z,16.30
2018-10-09T23:16:51.688Z,15.83
2018-10-09T23:19:20.944Z,15.43
2018-10-09T23:21:49.969Z,14.73
2018-10-09T23:24:19.093Z,15.53
2018-10-09T23:26:48.195Z,14.73
2018-10-09T23:29:17.227Z,16.90
2018-10-09T23:31:46.341Z,15.47
2018-10-09T23:34:15.351Z,15.07
2018-10-09T23:36:44.381Z,17.63
2018-10-09T23:39:13.404Z,16.33
2018-10-09T23:42:45.730Z,15.70
2018-10-09T23:45:14.847Z,16.33
2018-10-09T23:47:43.920Z,15.63
2018-10-09T23:50:13.549Z,15.27
2018-10-09T23:52:42.547Z,15.50
2018-10-09T23:55:11.636Z,16.83
2018-10-09T23:57:40.732Z,16.90
